Don's Testing Zone


Current Conditions
weather data
source:

National Weather Service
Cloudy Searcy, AR
Cloudy, 73°F
Sunday, October 22, 2017 3:56 AM CDT
Temperature: 73°F/23°C
Humidity: 94%
Barometer: 29.94in/1014.2mb Barometer Steady
Wind: W at 16mph/26kmh
View other cities:
Searcy | Little Rock | Hot Springs | Russellville | More...
Astronomical Conditions (Clear Sky Clock)
Searcy Clear Sky Clock
    

Radar Images

NWS
    Wx Underground

NWS METAR weather data

ADDS - METARS form results





Aviation Digital Data Service (ADDS) Output produced by METARs form (0945 UTC 22 October 2017) found at http://www.aviationweather.gov/adds/metars/ 

KSRC 220856Z AUTO 17014KT 10SM OVC017 23/22 A2994 RMK AO2 LTG DSNT W-N RAB29E53SLP142 6//// T02280222 56009

KSRC 220756Z AUTO 18013G18KT 10SM BKN019 OVC025 24/22 A2994 RMK AO2 SLP145T02390217

KSRC 220656Z AUTO 17011KT 10SM OVC018 23/22 A2994 RMK AO2 SLP144 T02330217

KSRC 220556Z AUTO 17011KT 10SM BKN018 OVC029 23/21 A2996 RMK AO2 SLP152 6////T02330211 10256 20228

KSRC 220541Z AUTO 17009G16KT 10SM FEW023 BKN029 23/21 A2997 RMK AO2

KSRC 220456Z AUTO 16009KT 10SM SCT055 23/21 A2999 RMK AO2 SLP162 T02280206402780150

KSRC 220356Z AUTO 14006KT 10SM FEW044 OVC060 23/19 RMK AO2 SLPNO T02330194 $

KSRC 220256Z AUTO 15006KT 10SM FEW041 OVC050 23/19 A2999 RMK AO2 SLP161 6////T02330194 51001

KSRC 220156Z AUTO 13007KT 10SM BKN050 OVC060 24/19 A2999 RMK AO2 SLP161T02440194

KSRC 220056Z AUTO 14009KT 10SM BKN047 OVC060 26/20 A3001 RMK AO2 SLP167T02560200

KSRC 212356Z AUTO 14006KT 10SM BKN050 OVC060 25/20 A2999 RMK AO2 SLP161 6////T02500200 10278 20250 55002

KSRC 212256Z AUTO 16009KT 10SM OVC044 27/20 A2998 RMK AO2 SLP159 T02670200

KSRC 212156Z AUTO 16006KT 10SM BKN049 BKN060 OVC070 27/21 A2998 RMK AO2 SLP158T02720206

KSRC 212056Z AUTO 19008KT 10SM OVC037 27/21 A2999 RMK AO2 LTG DSNT SW SLP1636//// T02670206 56016

KSRC 211956Z AUTO 18009KT 10SM BKN040 BKN047 OVC055 27/21 A3000 RMK AO2 SLP165T02720211

KSRC 211856Z AUTO 18012KT 10SM BKN037 OVC050 27/21 A3001 RMK AO2 SLP168T02720206

KSRC 211756Z AUTO 18010KT 10SM BKN030 OVC050 27/21 A3004 RMK AO2 SLP179 6////T02670206 10278 20178 58009

KSRC 211656Z AUTO 18010KT 10SM OVC025 26/21 A3006 RMK AO2 SLP186 T02610206

KSRC 211556Z AUTO 18010KT 10SM OVC017 25/20 A3007 RMK AO2 SLP189 T02500200

KSRC 211533Z AUTO 17010KT 10SM BKN017 24/20 A3007 RMK AO2

KSRC 211456Z AUTO 16011KT 10SM SCT026 23/19 A3007 RMK AO2 SLP189 6//// T0228018958003

KSRC 211356Z AUTO 12005KT 10SM OVC026 19/18 A3008 RMK AO2 SLP193 T01940178

KSRC 211343Z AUTO 11004KT 10SM BKN026 BKN110 19/18 A3008 RMK AO2

KSRC 211256Z AUTO 11003KT 10SM FEW043 OVC110 18/17 A3008 RMK AO2 SLP192T01780172

KSRC 211156Z AUTO 13003KT 10SM OVC043 18/17 A3007 RMK AO2 SLP191 6//// 7////T01780167 10178 20150 53007

KSRC 211056Z AUTO 00000KT 10SM FEW041 18/17 A3006 RMK AO2 RAB43E54 SLP188T01780167

KSRC 210956Z AUTO 15003KT 10SM OVC036 18/17 A3005 RMK AO2 RAB10E20 SLP183 P0000T01780167